Breezy Hill, Louisiana
Current Conditions -  °F | °C
As of 11:53 AM on Wednesday 28 Jan 2015 (Local Time) from KESF Reporting Station
Clear Clear  
Wind Chill: 67°   Ceiling: Unl
Heat Index: 67°   Visibility: 10mi
Dew Point: 40°   Wind: 5mph
Humidity: 37%   Direction: 130°SE
Pressure: 30.25"   Gusts: NA
Location:  31.538°N, 92.3799°W
Report Text: KESF 281753Z AUTO 13004KT 10SM CLR 19/04 A3025 RMK AO2 SLP242 T01940044 10200 20022 58001
Loading
Personal Weather Stations






























Interactive Weather Map New forecast layout! Learn more

10-Day Weather Forecast

Advertisements
Track Severe Weather on mobile